Time;durP1;ratioP1;P1;durP2;ratioP2;P2;SDS_P1;SDS_P2;PMS_P1;PMS_P2;Temp;Humidity;BMP_temperature;BMP_pressure;BME280_temperature;BME280_humidity;BME280_pressure;Samples;Min_cycle;Max_cycle;Signal;HPM_P1;HPM_P2
2022/01/07 00:02:01;;;;;;;17.20;5.80;;;;;;;;;;5033337;28;20223;-85
2022/01/07 00:04:28;;;;;;;14.23;5.35;;;;;;;;;;5051168;28;20234;-85
2022/01/07 00:06:54;;;;;;;15.02;6.60;;;;;;;;;;5035794;28;20044;-86
2022/01/07 00:09:20;;;;;;;8.77;4.50;;;;;;;;;;5037255;28;20049;-85
2022/01/07 00:11:47;;;;;;;14.98;6.60;;;;;;;;;;5054794;28;20029;-85
2022/01/07 00:14:13;;;;;;;13.85;5.88;;;;;;;;;;5034967;28;20048;-85
2022/01/07 00:16:39;;;;;;;13.68;6.60;;;;;;;;;;5036772;28;20033;-85
2022/01/07 00:19:06;;;;;;;16.08;6.47;;;;;;;;;;5053809;28;20114;-85
2022/01/07 00:21:32;;;;;;;10.27;4.53;;;;;;;;;;5050269;28;20029;-85
2022/01/07 00:23:58;;;;;;;14.23;5.63;;;;;;;;;;5036362;28;20028;-86
2022/01/07 00:26:24;;;;;;;10.95;5.43;;;;;;;;;;5055864;28;20036;-86
2022/01/07 00:28:50;;;;;;;11.48;5.15;;;;;;;;;;5034574;28;20037;-86
2022/01/07 00:31:16;;;;;;;13.10;5.75;;;;;;;;;;5051818;28;20100;-85
2022/01/07 00:33:43;;;;;;;15.18;5.20;;;;;;;;;;5039230;28;20213;-85
2022/01/07 00:36:10;;;;;;;16.92;5.30;;;;;;;;;;5038853;28;20108;-86
2022/01/07 00:38:36;;;;;;;10.15;5.28;;;;;;;;;;5037667;28;20025;-85
2022/01/07 00:41:03;;;;;;;13.68;5.22;;;;;;;;;;5038541;28;20029;-84
2022/01/07 00:43:29;;;;;;;11.95;5.32;;;;;;;;;;5039456;28;20113;-85
2022/01/07 00:45:56;;;;;;;14.10;6.22;;;;;;;;;;5055661;28;20033;-85
2022/01/07 00:48:22;;;;;;;17.48;5.53;;;;;;;;;;5053349;28;20282;-86
2022/01/07 00:50:49;;;;;;;11.35;4.97;;;;;;;;;;5055303;28;20246;-85
2022/01/07 00:53:15;;;;;;;24.45;7.75;;;;;;;;;;5054199;28;20190;-86
2022/01/07 00:55:41;;;;;;;13.50;4.95;;;;;;;;;;5055696;28;20109;-86
2022/01/07 00:58:07;;;;;;;10.15;5.80;;;;;;;;;;5052883;28;20088;-85
2022/01/07 01:00:34;;;;;;;11.25;5.68;;;;;;;;;;5054792;28;20213;-85
2022/01/07 01:03:00;;;;;;;14.15;5.85;;;;;;;;;;5049249;28;20040;-85
2022/01/07 01:05:27;;;;;;;15.75;6.45;;;;;;;;;;5054799;28;20104;-86
2022/01/07 01:07:53;;;;;;;12.45;6.00;;;;;;;;;;5052516;28;20483;-86
2022/01/07 01:10:22;;;;;;;17.60;7.00;;;;;;;;;;5055782;28;20092;-85
2022/01/07 01:12:49;;;;;;;15.73;7.88;;;;;;;;;;5034453;28;20313;-86
2022/01/07 01:15:17;;;;;;;16.13;8.27;;;;;;;;;;5051078;28;20066;-86
2022/01/07 01:17:44;;;;;;;11.50;7.60;;;;;;;;;;5054691;28;20028;-86
2022/01/07 01:20:11;;;;;;;11.18;7.20;;;;;;;;;;5051963;28;20100;-86
2022/01/07 01:22:37;;;;;;;19.77;9.05;;;;;;;;;;5037124;28;20079;-86
2022/01/07 01:25:04;;;;;;;18.25;8.35;;;;;;;;;;5055848;28;20041;-86
2022/01/07 01:27:30;;;;;;;16.33;8.10;;;;;;;;;;5053626;28;20083;-86
2022/01/07 01:29:57;;;;;;;10.50;6.97;;;;;;;;;;5053734;28;20029;-86
2022/01/07 01:32:23;;;;;;;14.25;8.30;;;;;;;;;;5035998;28;20034;-85
2022/01/07 01:34:49;;;;;;;14.35;8.55;;;;;;;;;;5050608;28;20048;-85
2022/01/07 01:37:16;;;;;;;20.70;9.50;;;;;;;;;;5034444;28;20124;-86
2022/01/07 01:39:42;;;;;;;15.82;7.72;;;;;;;;;;5036382;28;20309;-85
2022/01/07 01:42:08;;;;;;;17.30;9.13;;;;;;;;;;5055462;28;20265;-85
2022/01/07 01:44:34;;;;;;;17.05;10.90;;;;;;;;;;5038854;28;20026;-85
2022/01/07 01:47:02;;;;;;;15.07;9.98;;;;;;;;;;5039260;28;20072;-86
2022/01/07 01:49:29;;;;;;;17.65;9.73;;;;;;;;;;5042401;28;20037;-85
2022/01/07 01:51:55;;;;;;;16.23;9.15;;;;;;;;;;5054837;28;20227;-86
2022/01/07 01:54:21;;;;;;;12.98;10.18;;;;;;;;;;5052178;28;20260;-86
2022/01/07 01:56:48;;;;;;;14.02;10.23;;;;;;;;;;5050008;28;20395;-87
2022/01/07 01:59:14;;;;;;;13.02;8.30;;;;;;;;;;5040786;28;20021;-86
2022/01/07 02:01:40;;;;;;;13.38;8.57;;;;;;;;;;5037211;28;20242;-86
2022/01/07 02:04:07;;;;;;;12.80;8.57;;;;;;;;;;5036533;28;20049;-86
2022/01/07 02:06:33;;;;;;;15.30;10.35;;;;;;;;;;5049120;28;20033;-86
2022/01/07 02:08:59;;;;;;;13.43;10.55;;;;;;;;;;5034519;28;20293;-86
2022/01/07 02:11:25;;;;;;;16.45;9.55;;;;;;;;;;5034147;28;20429;-87
2022/01/07 02:13:56;;;;;;;11.75;8.68;;;;;;;;;;5037828;28;20029;-85
2022/01/07 02:16:25;;;;;;;11.90;8.45;;;2.80;99.90;;;;;;5054780;28;20033;-87
2022/01/07 02:18:51;;;;;;;10.43;7.85;;;;;;;;;;5052881;28;20100;-87
2022/01/07 02:21:17;;;;;;;10.82;7.63;;;;;;;;;;5038534;28;20025;-87
2022/01/07 02:23:44;;;;;;;12.48;7.53;;;;;;;;;;5049793;28;20036;-86
2022/01/07 02:26:11;;;;;;;10.45;7.20;;;;;;;;;;5051867;28;20052;-86
2022/01/07 02:28:37;;;;;;;15.27;8.15;;;;;;;;;;5051933;28;20033;-86
2022/01/07 02:31:04;;;;;;;12.50;8.27;;;;;;;;;;5035545;28;20040;-86
2022/01/07 02:33:30;;;;;;;14.40;8.25;;;;;;;;;;5035723;28;20037;-88
2022/01/07 02:35:56;;;;;;;12.95;9.02;;;;;;;;;;5054458;28;20127;-86
2022/01/07 02:38:23;;;;;;;10.13;7.97;;;;;;;;;;5056242;28;20127;-86
2022/01/07 02:40:49;;;;;;;8.73;6.72;;;;;;;;;;5052398;28;20025;-87
2022/01/07 02:43:15;;;;;;;12.73;10.25;;;;;;;;;;5058692;28;20036;-87
2022/01/07 02:45:41;;;;;;;14.07;7.10;;;;;;;;;;5055284;28;20033;-87
2022/01/07 02:48:08;;;;;;;12.10;9.18;;;;;;;;;;5054490;28;20037;-86
2022/01/07 02:50:36;;;;;;;12.80;7.13;;;;;;;;;;5055748;28;20075;-86
2022/01/07 02:53:07;;;;;;;15.38;8.38;;;;;;;;;;5056140;28;20278;-86
2022/01/07 02:55:34;;;;;;;13.05;9.25;;;;;;;;;;5057268;28;20216;-87
2022/01/07 02:58:00;;;;;;;12.05;9.00;;;;;;;;;;5040288;28;20130;-88
2022/01/07 03:00:27;;;;;;;21.08;10.38;;;;;;;;;;5038241;28;20052;-87
2022/01/07 03:02:54;;;;;;;14.13;9.82;;;3.00;99.90;;;;;;5050470;28;20055;-87
2022/01/07 03:05:21;;;;;;;11.05;9.05;;;;;;;;;;5053594;28;20099;-87
2022/01/07 03:07:48;;;;;;;17.60;9.60;;;;;;;;;;5053597;28;20624;-87
2022/01/07 03:10:16;;;;;;;13.88;7.93;;;;;;;;;;5052353;28;20037;-86
2022/01/07 03:12:43;;;;;;;14.95;11.13;;;;;;;;;;5040712;28;20069;-85
2022/01/07 03:15:11;;;;;;;12.10;9.18;;;;;;;;;;5058092;28;20282;-85
2022/01/07 03:17:40;;;;;;;15.25;8.85;;;;;;;;;;5054371;28;20028;-87
2022/01/07 03:20:11;;;;;;;15.18;10.88;;;;;;;;;;5039453;28;20075;-88
2022/01/07 03:22:38;;;;;;;11.73;8.35;;;;;;;;;;5056137;28;20061;-86
2022/01/07 03:25:05;;;;;;;13.68;9.57;;;;;;;;;;5049082;28;20040;-86
2022/01/07 03:27:31;;;;;;;11.98;9.07;;;;;;;;;;5042066;28;20368;-85
2022/01/07 03:29:57;;;;;;;13.27;9.57;;;;;;;;;;5040589;28;20033;-85
2022/01/07 03:32:24;;;;;;;15.15;8.88;;;;;;;;;;5054336;28;20055;-86
2022/01/07 03:34:51;;;;;;;13.90;10.07;;;;;;;;;;5049138;28;20043;-86
2022/01/07 03:37:17;;;;;;;11.93;8.90;;;;;;;;;;5051219;28;20103;-85
2022/01/07 03:39:43;;;;;;;14.35;9.85;;;;;;;;;;5054118;28;20025;-87
2022/01/07 03:42:10;;;;;;;14.52;9.05;;;;;;;;;;5035073;28;20301;-87
2022/01/07 03:44:36;;;;;;;13.80;9.02;;;;;;;;;;5033993;28;20376;-85
2022/01/07 03:47:02;;;;;;;15.98;9.77;;;3.20;1.00;;;;;;5038665;28;20057;-85
2022/01/07 03:49:28;;;;;;;17.25;10.10;;;;;;;;;;5036721;28;20040;-87
2022/01/07 03:51:55;;;;;;;14.50;8.90;;;;;;;;;;5053114;28;20025;-86
2022/01/07 03:54:21;;;;;;;13.98;8.98;;;;;;;;;;5054121;28;20060;-85
2022/01/07 03:56:47;;;;;;;16.92;10.20;;;;;;;;;;5053859;28;20417;-86
2022/01/07 03:59:13;;;;;;;13.43;8.75;;;;;;;;;;5051423;28;20467;-86
2022/01/07 04:01:39;;;;;;;17.70;10.85;;;;;;;;;;5050551;28;20155;-86
2022/01/07 04:04:06;;;;;;;11.48;8.15;;;;;;;;;;5039509;28;20053;-85
2022/01/07 04:06:32;;;;;;;11.48;7.70;;;;;;;;;;5056596;28;20332;-86
2022/01/07 04:08:58;;;;;;;15.02;9.63;;;;;;;;;;5034287;28;20040;-86
2022/01/07 04:11:24;;;;;;;15.88;8.27;;;;;;;;;;5037274;28;20408;-86
2022/01/07 04:13:51;;;;;;;12.60;8.95;;;;;;;;;;5033129;28;20283;-86
2022/01/07 04:16:17;;;;;;;13.73;10.25;;;;;;;;;;5051547;28;20036;-85
2022/01/07 04:18:44;;;;;;;13.45;9.57;;;;;;;;;;5057110;28;20276;-87
2022/01/07 04:21:10;;;;;;;14.45;9.63;;;;;;;;;;5055293;28;20041;-85
2022/01/07 04:23:36;;;;;;;14.77;10.30;;;;;;;;;;5050424;28;20314;-84
2022/01/07 04:26:03;;;;;;;14.80;10.00;;;;;;;;;;5028481;28;20176;-86
2022/01/07 04:28:29;;;;;;;13.43;8.68;;;;;;;;;;5034791;28;20040;-85
2022/01/07 04:30:55;;;;;;;13.82;10.50;;;;;;;;;;5055561;28;20080;-86
2022/01/07 04:33:26;;;;;;;12.98;8.73;;;;;;;;;;5054786;28;20075;-86
2022/01/07 04:35:54;;;;;;;15.23;10.57;;;3.80;1.00;;;;;;5029309;28;20171;-86
2022/01/07 04:38:20;;;;;;;15.15;11.05;;;;;;;;;;5054372;28;20134;-87
2022/01/07 04:40:46;;;;;;;17.27;12.00;;;;;;;;;;5050567;28;20118;-85
2022/01/07 04:43:13;;;;;;;15.13;10.73;;;;;;;;;;5049032;28;20033;-86
2022/01/07 04:45:39;;;;;;;18.08;10.73;;;;;;;;;;5037693;28;20036;-86
2022/01/07 04:48:05;;;;;;;16.45;11.90;;;;;;;;;;5036288;28;20037;-87
2022/01/07 04:50:32;;;;;;;13.57;9.77;;;;;;;;;;5054559;28;20071;-86
2022/01/07 04:52:59;;;;;;;15.57;10.15;;;;;;;;;;5053692;28;20111;-86
2022/01/07 04:55:26;;;;;;;17.05;11.68;;;;;;;;;;5037163;28;20253;-86
2022/01/07 04:57:53;;;;;;;16.30;10.57;;;;;;;;;;5038876;28;20039;-86
2022/01/07 05:00:21;;;;;;;18.60;12.60;;;3.70;99.90;;;;;;5037363;28;20053;-87
2022/01/07 05:02:47;;;;;;;19.65;10.23;;;;;;;;;;5050285;28;20025;-86
2022/01/07 05:05:14;;;;;;;13.98;9.13;;;;;;;;;;5058232;28;20021;-87
2022/01/07 05:07:40;;;;;;;19.73;11.80;;;;;;;;;;5058751;28;20193;-86
2022/01/07 05:10:08;;;;;;;20.33;13.82;;;;;;;;;;5040203;28;20045;-86
2022/01/07 05:12:34;;;;;;;17.38;13.98;;;;;;;;;;5055058;28;20044;-86
2022/01/07 05:15:02;;;;;;;16.80;12.68;;;3.70;99.90;;;;;;5043005;28;20036;-87
2022/01/07 05:17:28;;;;;;;17.73;11.27;;;;;;;;;;5037013;28;20057;-86
2022/01/07 05:19:54;;;;;;;15.73;12.20;;;;;;;;;;5044088;28;20096;-86
2022/01/07 05:22:20;;;;;;;17.30;12.43;;;;;;;;;;5049736;28;20039;-84
2022/01/07 05:24:47;;;;;;;18.35;10.93;;;;;;;;;;5050638;28;20228;-85
2022/01/07 05:27:13;;;;;;;15.80;11.95;;;;;;;;;;5053128;28;20178;-87
2022/01/07 05:29:39;;;;;;;14.27;10.73;;;;;;;;;;5048751;28;20154;-86
2022/01/07 05:32:06;;;;;;;18.05;11.02;;;;;;;;;;5048565;28;20321;-85
2022/01/07 05:34:32;;;;;;;15.40;10.48;;;;;;;;;;5038323;28;20029;-85
2022/01/07 05:36:58;;;;;;;17.65;10.77;;;;;;;;;;5034892;28;20064;-86
2022/01/07 05:39:25;;;;;;;14.40;9.57;;;;;;;;;;5053577;28;20093;-85
2022/01/07 05:41:52;;;;;;;20.77;12.65;;;;;;;;;;5036292;28;20156;-84
2022/01/07 05:44:18;;;;;;;16.23;12.23;;;;;;;;;;5036038;28;20304;-85
2022/01/07 05:46:44;;;;;;;15.93;12.05;;;;;;;;;;5037888;28;20064;-85
2022/01/07 05:49:11;;;;;;;18.83;12.00;;;;;;;;;;5049693;28;20087;-85
2022/01/07 05:51:37;;;;;;;19.08;11.88;;;;;;;;;;5036441;28;20203;-86
2022/01/07 05:54:03;;;;;;;18.08;11.25;;;;;;;;;;5031024;28;20049;-85
2022/01/07 05:56:31;;;;;;;16.85;11.13;;;;;;;;;;5032286;28;20206;-86
2022/01/07 05:58:57;;;;;;;15.90;11.02;;;;;;;;;;5054214;28;20067;-86
2022/01/07 06:01:23;;;;;;;18.85;12.23;;;;;;;;;;5049497;28;20039;-86
2022/01/07 06:03:49;;;;;;;22.40;13.00;;;;;;;;;;5044036;28;20183;-85
2022/01/07 06:06:16;;;;;;;25.85;19.45;;;;;;;;;;5036898;28;20106;-85
2022/01/07 06:08:42;;;;;;;19.95;13.65;;;;;;;;;;5042245;28;20036;-85
2022/01/07 06:11:08;;;;;;;21.63;12.95;;;;;;;;;;5056211;28;20044;-85
2022/01/07 06:13:36;;;;;;;17.67;11.40;;;;;;;;;;5050735;28;20040;-86
2022/01/07 06:16:03;;;;;;;17.27;12.23;;;;;;;;;;5040844;28;20083;-85
2022/01/07 06:18:29;;;;;;;18.65;11.25;;;;;;;;;;5040575;28;20033;-85
2022/01/07 06:20:55;;;;;;;15.52;12.00;;;;;;;;;;5036158;28;20047;-85
2022/01/07 06:23:22;;;;;;;21.13;14.15;;;;;;;;;;5055727;28;20032;-87
2022/01/07 06:25:51;;;;;;;16.15;11.00;;;;;;;;;;5056820;28;20066;-87
2022/01/07 06:28:18;;;;;;;19.45;12.95;;;;;;;;;;5040576;28;20036;-86
2022/01/07 06:30:45;;;;;;;18.60;13.70;;;;;;;;;;5037380;28;20053;-87
2022/01/07 06:33:12;;;;;;;15.07;11.57;;;;;;;;;;5041495;28;20037;-86
2022/01/07 06:35:38;;;;;;;19.52;13.05;;;;;;;;;;5041757;28;20025;-86
2022/01/07 06:38:05;;;;;;;18.70;11.70;;;4.30;99.90;;;;;;5056736;28;20028;-86
2022/01/07 06:40:31;;;;;;;15.75;10.70;;;;;;;;;;5041740;28;20079;-87
2022/01/07 06:42:57;;;;;;;17.27;12.57;;;;;;;;;;5039672;28;20021;-88
2022/01/07 06:45:23;;;;;;;20.52;12.60;;;;;;;;;;5053653;28;20036;-87
2022/01/07 06:47:50;;;;;;;15.52;11.65;;;;;;;;;;5038666;28;20020;-87
2022/01/07 06:50:16;;;;;;;19.23;13.07;;;;;;;;;;5056533;28;20040;-87
2022/01/07 06:52:42;;;;;;;17.17;12.75;;;;;;;;;;5051007;28;20017;-88
2022/01/07 06:55:08;;;;;;;16.58;11.88;;;;;;;;;;5055745;28;20029;-87
2022/01/07 06:57:34;;;;;;;17.90;10.80;;;;;;;;;;5052075;28;20057;-87
2022/01/07 07:00:01;;;;;;;19.08;12.02;;;;;;;;;;5057139;28;20376;-86
2022/01/07 07:02:27;;;;;;;15.65;10.48;;;;;;;;;;5042571;28;20145;-86
2022/01/07 07:04:53;;;;;;;18.83;11.95;;;;;;;;;;5059493;28;20107;-87
2022/01/07 07:07:19;;;;;;;17.70;10.27;;;;;;;;;;5041987;28;20033;-86
2022/01/07 07:09:46;;;;;;;15.80;10.88;;;;;;;;;;5038720;28;20025;-88
2022/01/07 07:12:13;;;;;;;18.23;10.65;;;;;;;;;;5032484;28;20143;-87
2022/01/07 07:14:39;;;;;;;15.77;11.15;;;;;;;;;;5037141;28;20040;-87
2022/01/07 07:17:05;;;;;;;17.52;9.38;;;;;;;;;;5038442;28;20245;-89
2022/01/07 07:19:32;;;;;;;19.65;11.55;;;;;;;;;;5035542;28;20029;-88
2022/01/07 07:21:58;;;;;;;15.73;10.60;;;;;;;;;;5054166;28;20260;-88
2022/01/07 07:24:24;;;;;;;18.77;9.38;;;;;;;;;;5036130;28;20029;-87
2022/01/07 07:26:51;;;;;;;14.52;9.82;;;;;;;;;;5039912;28;20037;-87
2022/01/07 07:29:17;;;;;;;16.45;8.25;;;;;;;;;;5037081;28;20362;-86
2022/01/07 07:31:48;;;;;;;14.10;8.45;;;;;;;;;;5037063;28;20029;-87
2022/01/07 07:36:40;;;;;;;12.00;7.43;;;;;;;;;;5049255;28;20049;-86
2022/01/07 07:39:08;;;;;;;12.48;7.60;;;;;;;;;;5056192;28;20033;-85
2022/01/07 07:41:35;;;;;;;13.13;8.70;;;;;;;;;;5062828;28;20347;-86
2022/01/07 07:44:01;;;;;;;16.98;8.98;;;;;;;;;;5054933;28;20304;-86
2022/01/07 07:46:30;;;;;;;15.85;9.98;;;;;;;;;;5036191;28;20029;-86
2022/01/07 07:48:56;;;;;;;21.05;9.15;;;;;;;;;;5050106;28;20040;-86
2022/01/07 07:51:22;;;;;;;19.33;9.32;;;;;;;;;;5053446;28;20189;-87
2022/01/07 07:53:49;;;;;;;17.92;10.80;;;;;;;;;;5052294;28;20094;-86
2022/01/07 07:56:16;;;;;;;15.23;10.15;;;;;;;;;;5039662;28;20055;-86
2022/01/07 07:58:42;;;;;;;15.30;9.48;;;;;;;;;;5053231;28;20266;-88
2022/01/07 08:01:09;;;;;;;15.68;8.70;;;;;;;;;;5033957;28;20029;-86
2022/01/07 08:03:35;;;;;;;16.20;9.88;;;;;;;;;;5035700;28;20335;-86
2022/01/07 08:06:01;;;;;;;13.50;7.90;;;;;;;;;;5051434;28;20259;-85
2022/01/07 08:08:27;;;;;;;20.00;11.07;;;;;;;;;;5037868;28;20028;-85
2022/01/07 08:10:57;;;;;;;19.50;9.68;;;;;;;;;;5052707;28;20075;-85
2022/01/07 08:16:10;;;;;;;15.70;10.50;;;;;;;;;;5051908;28;20037;-86
2022/01/07 08:18:37;;;;;;;19.55;10.13;;;;;;;;;;5037620;28;20033;-86
2022/01/07 08:21:08;;;;;;;15.00;8.80;;;3.60;99.90;;;;;;5050876;28;20031;-84
2022/01/07 08:23:36;;;;;;;11.18;7.25;;;;;;;;;;5053623;28;20048;-85
2022/01/07 08:26:06;;;;;;;20.67;8.43;;;3.60;99.90;;;;;;5049602;28;20079;-86
2022/01/07 08:28:38;;;;;;;15.68;8.13;;;;;;;;;;5055902;28;20071;-87
2022/01/07 08:36:19;;;;;;;18.88;9.70;;;;;;;;;;5049772;28;20024;-86
2022/01/07 08:38:46;;;;;;;19.10;10.00;;;;;;;;;;5037155;28;20021;-86
2022/01/07 08:41:12;;;;;;;19.55;11.63;;;;;;;;;;5035779;28;20068;-86
2022/01/07 08:43:39;;;;;;;27.13;12.38;;;;;;;;;;5033982;28;20029;-86
2022/01/07 08:46:08;;;;;;;11.57;7.22;;;;;;;;;;5033504;28;20034;-86
2022/01/07 08:48:35;;;;;;;14.10;7.65;;;;;;;;;;5063733;28;20114;-85
2022/01/07 08:51:01;;;;;;;13.18;7.57;;;;;;;;;;5032098;28;20097;-83
2022/01/07 08:53:27;;;;;;;22.85;11.15;;;;;;;;;;5039065;28;20029;-80
2022/01/07 08:55:53;;;;;;;22.52;9.38;;;;;;;;;;5051461;28;20024;-80
2022/01/07 08:58:20;;;;;;;16.17;7.97;;;;;;;;;;5049933;28;20134;-80
2022/01/07 09:00:46;;;;;;;12.52;7.65;;;;;;;;;;5049385;28;20029;-81
2022/01/07 09:03:12;;;;;;;10.07;6.43;;;;;;;;;;5048239;28;20025;-81
2022/01/07 09:05:39;;;;;;;15.07;7.47;;;;;;;;;;5050457;28;20100;-80
2022/01/07 09:08:12;;;;;;;15.15;8.60;;;;;;;;;;5038584;28;20064;-81
2022/01/07 09:10:38;;;;;;;17.30;8.90;;;;;;;;;;5051485;28;20029;-80
2022/01/07 09:13:04;;;;;;;18.95;9.43;;;;;;;;;;5050712;28;20049;-81
2022/01/07 09:15:31;;;;;;;20.05;9.82;;;;;;;;;;5036755;28;20112;-81
2022/01/07 09:17:57;;;;;;;15.90;9.25;;;;;;;;;;5039458;28;20033;-80
2022/01/07 09:20:23;;;;;;;10.70;6.65;;;;;;;;;;5046717;28;20267;-80
2022/01/07 09:22:50;;;;;;;18.10;9.65;;;;;;;;;;5052639;28;20028;-80
2022/01/07 09:25:16;;;;;;;19.98;9.73;;;4.50;3.50;;;;;;5030733;28;20047;-81
2022/01/07 09:27:43;;;;;;;21.67;11.18;;;;;;;;;;5050298;28;20037;-80
2022/01/07 09:30:12;;;;;;;11.30;6.97;;;;;;;;;;5037019;28;20290;-82
2022/01/07 09:32:39;;;;;;;12.23;6.68;;;;;;;;;;5037665;28;20033;-82
2022/01/07 09:35:06;;;;;;;17.15;7.20;;;;;;;;;;5036181;28;20047;-82
2022/01/07 09:37:33;;;;;;;12.77;7.78;;;;;;;;;;5034723;28;20061;-81
2022/01/07 09:40:02;;;;;;;24.92;10.48;;;;;;;;;;5051551;28;20021;-81
2022/01/07 09:42:28;;;;;;;21.52;10.70;;;;;;;;;;5041225;28;20102;-81
2022/01/07 09:44:56;;;;;;;16.38;8.68;;;;;;;;;;5057264;28;20224;-82
2022/01/07 09:47:22;;;;;;;12.73;7.65;;;;;;;;;;5053176;28;20037;-82
2022/01/07 09:49:49;;;;;;;19.50;9.65;;;;;;;;;;5053503;28;20191;-82
2022/01/07 09:52:15;;;;;;;16.30;9.43;;;;;;;;;;5039042;28;20325;-81
2022/01/07 09:54:41;;;;;;;21.77;9.48;;;;;;;;;;5041759;28;20266;-82
2022/01/07 09:57:08;;;;;;;18.38;8.52;;;;;;;;;;5034044;28;20039;-82
2022/01/07 09:59:35;;;;;;;16.30;9.13;;;;;;;;;;5048829;28;20209;-82
2022/01/07 10:02:03;;;;;;;19.05;6.18;;;;;;;;;;5052357;28;20109;-82
2022/01/07 10:04:31;;;;;;;17.40;6.25;;;;;;;;;;5047926;28;20042;-82
2022/01/07 10:07:16;;;;;;;15.15;5.75;;;;;;;;;;5051133;28;20071;-82
2022/01/07 10:09:57;;;;;;;12.00;3.33;;;;;;;;;;5074559;28;20028;-81
2022/01/07 10:12:23;;;;;;;17.95;6.90;;;;;;;;;;5056101;28;20032;-82
2022/01/07 10:15:09;;;;;;;13.60;5.65;;;;;;;;;;5056637;28;20021;-82
2022/01/07 10:17:35;;;;;;;19.75;6.15;;;;;;;;;;5055363;28;20029;-82
2022/01/07 10:20:02;;;;;;;15.32;5.78;;;;;;;;;;5036848;28;20040;-81
2022/01/07 10:22:28;;;;;;;15.88;6.53;;;;;;;;;;5054961;28;20047;-81
2022/01/07 10:24:59;;;;;;;11.63;5.90;;;5.70;99.90;;;;;;5056097;28;20317;-81
2022/01/07 10:27:35;;;;;;;16.80;7.47;;;;;;;;;;5037261;28;20056;-80
2022/01/07 10:30:03;;;;;;;13.40;6.65;;;;;;;;;;5057702;28;20037;-81
2022/01/07 10:32:32;;;;;;;17.10;6.68;;;;;;;;;;5055140;28;20029;-81
2022/01/07 10:35:10;;;;;;;15.85;6.47;;;;;;;;;;5040728;28;20025;-81
2022/01/07 10:37:45;;;;;;;16.95;5.40;;;;;;;;;;5051970;28;20041;-81
2022/01/07 10:40:20;;;;;;;10.43;4.57;;;;;;;;;;5036470;28;20043;-81
2022/01/07 10:42:47;;;;;;;9.77;4.07;;;;;;;;;;5040027;28;20040;-80
2022/01/07 10:45:13;;;;;;;9.95;4.32;;;;;;;;;;5052540;28;20033;-81
2022/01/07 10:47:39;;;;;;;7.78;3.58;;;;;;;;;;5049538;28;20049;-80
2022/01/07 10:50:24;;;;;;;6.88;3.42;;;;;;;;;;5054815;28;20346;-81
2022/01/07 10:52:51;;;;;;;10.73;2.80;;;;;;;;;;5037413;28;20036;-81
2022/01/07 10:55:20;;;;;;;8.15;3.15;;;7.80;99.90;;;;;;5055492;28;20063;-81
2022/01/07 10:57:51;;;;;;;9.15;3.40;;;;;;;;;;5053409;28;20040;-80
2022/01/07 11:00:18;;;;;;;10.52;3.78;;;;;;;;;;5073377;28;20116;-79
2022/01/07 11:02:45;;;;;;;8.43;2.80;;;;;;;;;;5056149;28;20029;-79
2022/01/07 11:05:12;;;;;;;9.75;3.55;;;;;;;;;;5055603;28;20190;-80
2022/01/07 11:07:38;;;;;;;14.40;3.47;;;;;;;;;;5032452;28;20342;-79
2022/01/07 11:10:05;;;;;;;9.77;2.95;;;;;;;;;;5054268;28;20081;-79
2022/01/07 11:12:32;;;;;;;17.25;3.65;;;6.20;99.90;;;;;;5051103;28;20346;-79
2022/01/07 11:14:59;;;;;;;6.38;3.25;;;;;;;;;;5040013;28;20024;-79
2022/01/07 11:17:26;;;;;;;11.05;2.03;;;;;;;;;;5056939;28;20029;-80
2022/01/07 11:19:56;;;;;;;5.20;1.50;;;;;;;;;;5052026;28;20049;-79
2022/01/07 11:22:23;;;;;;;11.57;3.60;;;;;;;;;;5051557;28;20100;-80
2022/01/07 11:24:51;;;;;;;6.97;1.38;;;;;;;;;;5037890;28;20032;-82
2022/01/07 11:27:22;;;;;;;11.45;0.93;;;;;;;;;;5055214;28;20338;-82
2022/01/07 11:30:04;;;;;;;7.22;1.13;;;;;;;;;;5050848;28;20029;-83
2022/01/07 11:32:30;;;;;;;6.82;1.05;;;;;;;;;;5054526;28;20567;-84
2022/01/07 11:34:57;;;;;;;11.05;1.50;;;;;;;;;;5038410;28;20212;-84
2022/01/07 11:37:33;;;;;;;8.43;1.50;;;;;;;;;;5055142;28;20217;-84
2022/01/07 11:39:59;;;;;;;7.18;0.90;;;;;;;;;;5050876;28;20120;-81
2022/01/07 11:42:44;;;;;;;3.10;0.63;;;9.20;99.90;;;;;;5050883;28;20036;-82
2022/01/07 11:45:29;;;;;;;6.82;1.13;;;;;;;;;;5047011;28;20029;-81
2022/01/07 11:47:55;;;;;;;3.75;0.75;;;;;;;;;;5035582;28;20033;-81
2022/01/07 11:50:24;;;;;;;5.63;0.73;;;;;;;;;;5035564;28;20061;-80
2022/01/07 11:53:04;;;;;;;2.38;0.82;;;;;;;;;;5049180;28;20109;-81
2022/01/07 11:55:30;;;;;;;6.32;1.17;;;;;;;;;;5050370;28;20202;-81
2022/01/07 11:57:58;;;;;;;8.27;0.82;;;;;;;;;;5047581;28;20021;-81
2022/01/07 12:00:43;;;;;;;6.10;1.50;;;;;;;;;;5038195;28;20044;-81
2022/01/07 12:03:09;;;;;;;4.78;1.42;;;;;;;;;;5036956;28;20017;-83
2022/01/07 12:05:35;;;;;;;4.63;0.90;;;;;;;;;;5054935;28;20045;-81
2022/01/07 12:08:01;;;;;;;5.57;1.08;;;;;;;;;;5035686;28;20029;-82
2022/01/07 12:10:28;;;;;;;8.75;1.23;;;;;;;;;;5035816;28;20045;-81
2022/01/07 12:13:00;;;;;;;2.80;0.70;;;;;;;;;;5052973;28;20025;-80
2022/01/07 12:15:27;;;;;;;4.15;0.88;;;;;;;;;;5054081;28;20095;-82
2022/01/07 12:17:54;;;;;;;5.10;0.68;;;;;;;;;;5052891;28;20076;-80
2022/01/07 12:20:24;;;;;;;2.42;0.52;;;;;;;;;;5053908;28;20037;-81
2022/01/07 12:22:51;;;;;;;4.25;0.90;;;;;;;;;;5051853;28;20060;-81
2022/01/07 12:25:18;;;;;;;3.10;0.50;;;;;;;;;;5054411;28;20021;-82
2022/01/07 12:27:44;;;;;;;3.95;0.75;;;;;;;;;;5049039;28;20273;-81
2022/01/07 12:30:10;;;;;;;5.38;1.27;;;;;;;;;;5035547;28;20056;-81
2022/01/07 12:32:38;;;;;;;6.88;1.48;;;;;;;;;;5038246;28;20032;-81
2022/01/07 12:35:05;;;;;;;0.98;0.50;;;;;;;;;;5038403;28;20045;-81
2022/01/07 12:37:31;;;;;;;3.35;0.82;;;;;;;;;;5032524;28;20244;-81
2022/01/07 12:40:02;;;;;;;5.07;0.98;;;;;;;;;;5035927;28;20079;-81
2022/01/07 12:42:30;;;;;;;7.15;1.33;;;;;;;;;;5054435;28;20457;-81
2022/01/07 12:44:57;;;;;;;6.78;0.80;;;;;;;;;;5054397;28;20032;-81
2022/01/07 12:47:28;;;;;;;8.25;1.02;;;;;;;;;;5053109;28;20417;-81
2022/01/07 12:49:58;;;;;;;4.95;1.08;;;;;;;;;;5049588;28;20044;-81
2022/01/07 12:52:24;;;;;;;8.23;1.00;;;;;;;;;;5055317;28;20116;-81
2022/01/07 12:54:56;;;;;;;4.43;0.63;;;;;;;;;;5053523;28;20246;-81
2022/01/07 12:57:56;;;;;;;4.07;0.93;;;8.00;99.90;;;;;;5033842;28;20035;-80
2022/01/07 13:00:23;;;;;;;6.47;0.98;;;;;;;;;;5052315;28;20037;-81
2022/01/07 13:02:51;;;;;;;6.90;1.65;;;;;;;;;;5035924;28;20385;-81
2022/01/07 13:05:17;;;;;;;8.50;1.25;;;;;;;;;;5054456;28;20302;-81
2022/01/07 13:07:48;;;;;;;12.23;0.98;;;;;;;;;;5035078;28;20052;-81
2022/01/07 13:10:20;;;;;;;4.30;1.27;;;;;;;;;;5047707;28;20148;-81
2022/01/07 13:12:53;;;;;;;7.75;1.27;;;;;;;;;;5052677;28;20101;-81
2022/01/07 13:15:33;;;;;;;7.88;1.42;;;;;;;;;;5054636;28;20218;-81
2022/01/07 13:18:13;;;;;;;7.63;1.30;;;;;;;;;;5050677;28;20029;-83
2022/01/07 13:20:39;;;;;;;8.15;1.35;;;;;;;;;;5055045;28;20045;-84
2022/01/07 13:23:08;;;;;;;7.38;1.05;;;;;;;;;;5051963;28;20046;-84
2022/01/07 13:25:35;;;;;;;10.60;1.90;;;;;;;;;;5043351;28;20274;-84
2022/01/07 13:28:01;;;;;;;8.18;1.35;;;;;;;;;;5050214;28;20033;-84
2022/01/07 13:30:41;;;;;;;12.65;1.50;;;;;;;;;;5049345;28;20029;-83
2022/01/07 13:33:11;;;;;;;7.53;1.02;;;;;;;;;;5054903;28;20033;-83
2022/01/07 13:35:37;;;;;;;9.52;1.30;;;;;;;;;;5048450;28;20029;-83
2022/01/07 13:38:11;;;;;;;7.38;1.77;;;;;;;;;;5050893;28;20273;-83
2022/01/07 13:40:37;;;;;;;10.23;1.38;;;;;;;;;;5037153;28;20028;-83
2022/01/07 13:43:09;;;;;;;6.20;1.38;;;;;;;;;;5050937;28;20035;-83
2022/01/07 13:45:36;;;;;;;8.55;1.60;;;;;;;;;;5033410;28;20225;-81
2022/01/07 13:48:13;;;;;;;5.55;1.00;;;;;;;;;;5050488;28;20025;-81
2022/01/07 13:50:41;;;;;;;12.73;2.08;;;;;;;;;;5036498;28;20036;-81
2022/01/07 13:53:16;;;;;;;5.70;1.08;;;;;;;;;;5033390;28;20156;-81
2022/01/07 13:55:43;;;;;;;11.02;1.75;;;;;;;;;;5046473;28;20036;-81
2022/01/07 13:58:09;;;;;;;5.95;1.73;;;;;;;;;;5046758;28;20290;-83
2022/01/07 14:00:37;;;;;;;7.28;1.00;;;6.30;1.00;;;;;;5051935;28;20052;-83
2022/01/07 14:03:04;;;;;;;9.13;1.50;;;;;;;;;;5053603;28;20036;-84
2022/01/07 14:05:30;;;;;;;7.10;1.25;;;;;;;;;;5044470;28;20056;-84
2022/01/07 14:07:56;;;;;;;8.57;1.27;;;;;;;;;;5052599;28;20089;-83
2022/01/07 14:10:35;;;;;;;9.77;1.98;;;7.80;99.90;;;;;;5055552;28;20062;-84
2022/01/07 14:13:07;;;;;;;5.80;1.15;;;;;;;;;;5053254;28;20041;-83
2022/01/07 14:15:42;;;;;;;9.60;1.60;;;;;;;;;;5037963;28;20072;-83
2022/01/07 14:18:08;;;;;;;;;;;;;;;;;;5050114;28;20278;-83
2022/01/07 14:21:03;;;;;;;7.68;0.95;;;;;;;;;;5053484;28;20182;-81
2022/01/07 14:23:31;;;;;;;13.18;1.98;;;;;;;;;;5049111;28;20045;-83
2022/01/07 14:26:17;;;;;;;6.25;1.25;;;7.10;22.80;;;;;;5046780;28;20036;-81
2022/01/07 14:28:44;;;;;;;5.57;0.93;;;;;;;;;;5035448;28;20112;-81
2022/01/07 14:31:13;;;;;;;4.90;1.15;;;;;;;;;;5035518;28;20045;-81
2022/01/07 14:33:42;;;;;;;3.58;1.02;;;;;;;;;;5052521;28;20059;-81
2022/01/07 14:36:08;;;;;;;5.35;1.65;;;;;;;;;;5040791;28;20029;-81
2022/01/07 14:38:35;;;;;;;13.75;1.00;;;;;;;;;;5055594;28;20029;-81